Aérodrome :
LOGIN :

S'inscrire | Disclaimer

   EN    FR    IT 

 










Légende :    VFR   VFR Marginal   IFR   IFR Intensif   IFR Très Intensif
Visi : 
Plafond : 
>= 8 km
>= 3000ft
5 à 8 km
1000 à 3000 ft
1500m à 5 km
500 à 1000 ft
800 à 1500m
200 à 500 ft
< 800m
< 200 ft
Symboles :   Orages  Brouillard  Fortes neiges  Fortes précipitations  Vent > 20 kt
SIGMETs :   Divers  Orages  Givrage  Turbulence  Onde Orograph.  Cendres Volcan.






- Altitude de l'aérodrome : 57 ft
- Code IATA : KRS


ENCN - Kristiansand Kjevik

DERNIER METAR :
  • 130920Z 05008KT 9999 FEW001 SCT016TCU 02/02 Q0998

METARs EXPIRÉS :
  • 130850Z 06008KT 7000 BKN017 BKN022 02/01 Q0998
  • 130820Z 05007KT 9000 FEW002 SCT019 SCT023TCU 02/02 Q0998
  • 130750Z 06007KT 9999 FEW001 SCT018 FEW025TCU 02/01 Q0997
  • 130720Z 04007KT 9999 VCSH FEW005 BKN031 03/02 Q0997
  • 130650Z 06008KT 7000 FEW019 BKN051 01/01 Q0997

TAF TAF ENCN
Valide du 13 à 09h jusqu'au 13 à 18h UTC


130800Z 1309/1318 06008KT 9999 -SHRA FEW015TCU BKN020



MET'MAP, la Météo Aéronautique d'un coup d'oeil ! - Copyright ORBIFLY Décembre 2007 - Disclaimer

ORBIFLY MET'MAP TEAM :

Programmation & Développement : Alexandra Zaïnal
Conception & Développement : Baudouin d'Aumeries
Co-Programmation & Développement : Marc-Olivier Méhu
Soutien technique & logistique : Manuel Goepfert

Contact : metmap@orbifly.com




SOURCES & CREDITS :

   NOAA